sensor_id;sensor_type;location;lat;lon;timestamp;temperature;humidity
14097;DHT22;7125;48.106;11.544;2022-11-03T00:01:12;5.10;99.90
14097;DHT22;7125;48.106;11.544;2022-11-03T00:03:39;5.10;99.90
14097;DHT22;7125;48.106;11.544;2022-11-03T00:06:06;5.10;99.90
14097;DHT22;7125;48.106;11.544;2022-11-03T00:08:35;5.10;99.90
14097;DHT22;7125;48.106;11.544;2022-11-03T00:11:04;5.10;99.90
14097;DHT22;7125;48.106;11.544;2022-11-03T00:13:32;5.10;99.90
14097;DHT22;7125;48.106;11.544;2022-11-03T00:16:00;5.00;99.90
14097;DHT22;7125;48.106;11.544;2022-11-03T00:18:26;5.10;99.90
14097;DHT22;7125;48.106;11.544;2022-11-03T00:20:58;5.00;99.90
14097;DHT22;7125;48.106;11.544;2022-11-03T00:23:27;5.00;99.90
14097;DHT22;7125;48.106;11.544;2022-11-03T00:26:02;5.00;99.90
14097;DHT22;7125;48.106;11.544;2022-11-03T00:28:30;5.00;99.90
14097;DHT22;7125;48.106;11.544;2022-11-03T00:30:58;5.00;99.90
14097;DHT22;7125;48.106;11.544;2022-11-03T00:33:26;5.10;99.90
14097;DHT22;7125;48.106;11.544;2022-11-03T00:35:56;5.00;99.90
14097;DHT22;7125;48.106;11.544;2022-11-03T00:38:23;5.00;99.90
14097;DHT22;7125;48.106;11.544;2022-11-03T00:40:55;5.00;99.90
14097;DHT22;7125;48.106;11.544;2022-11-03T00:43:24;5.00;99.90
14097;DHT22;7125;48.106;11.544;2022-11-03T00:45:52;5.00;99.90
14097;DHT22;7125;48.106;11.544;2022-11-03T00:48:19;5.00;99.90
14097;DHT22;7125;48.106;11.544;2022-11-03T00:51:00;5.10;99.90
14097;DHT22;7125;48.106;11.544;2022-11-03T00:53:27;5.10;99.90
14097;DHT22;7125;48.106;11.544;2022-11-03T00:55:55;5.10;99.90
14097;DHT22;7125;48.106;11.544;2022-11-03T00:58:22;5.10;99.90
14097;DHT22;7125;48.106;11.544;2022-11-03T01:00:50;5.10;99.90
14097;DHT22;7125;48.106;11.544;2022-11-03T01:03:16;5.10;99.90
14097;DHT22;7125;48.106;11.544;2022-11-03T01:05:44;5.00;99.90
14097;DHT22;7125;48.106;11.544;2022-11-03T01:08:32;5.00;99.90
14097;DHT22;7125;48.106;11.544;2022-11-03T01:11:08;5.00;99.90
14097;DHT22;7125;48.106;11.544;2022-11-03T01:13:52;4.90;99.90
14097;DHT22;7125;48.106;11.544;2022-11-03T01:16:19;5.00;99.90
14097;DHT22;7125;48.106;11.544;2022-11-03T01:18:49;5.00;99.90
14097;DHT22;7125;48.106;11.544;2022-11-03T01:21:16;5.00;99.90
14097;DHT22;7125;48.106;11.544;2022-11-03T01:23:46;5.00;99.90
14097;DHT22;7125;48.106;11.544;2022-11-03T01:26:14;5.00;99.90
14097;DHT22;7125;48.106;11.544;2022-11-03T01:28:44;5.00;99.90
14097;DHT22;7125;48.106;11.544;2022-11-03T01:31:13;5.00;99.90
14097;DHT22;7125;48.106;11.544;2022-11-03T01:33:41;5.00;99.90
14097;DHT22;7125;48.106;11.544;2022-11-03T01:36:10;5.00;99.90
14097;DHT22;7125;48.106;11.544;2022-11-03T01:38:37;5.00;99.90
14097;DHT22;7125;48.106;11.544;2022-11-03T01:41:06;5.00;99.90
14097;DHT22;7125;48.106;11.544;2022-11-03T01:43:37;5.00;99.90
14097;DHT22;7125;48.106;11.544;2022-11-03T01:46:07;5.00;99.90
14097;DHT22;7125;48.106;11.544;2022-11-03T01:48:40;5.00;99.90
14097;DHT22;7125;48.106;11.544;2022-11-03T01:51:10;5.00;99.90
14097;DHT22;7125;48.106;11.544;2022-11-03T01:53:40;5.00;99.90
14097;DHT22;7125;48.106;11.544;2022-11-03T01:56:09;5.00;99.90
14097;DHT22;7125;48.106;11.544;2022-11-03T01:58:41;5.00;99.90
14097;DHT22;7125;48.106;11.544;2022-11-03T02:01:09;5.00;99.90
14097;DHT22;7125;48.106;11.544;2022-11-03T02:03:39;5.00;99.90
14097;DHT22;7125;48.106;11.544;2022-11-03T02:06:07;5.00;99.90
14097;DHT22;7125;48.106;11.544;2022-11-03T02:08:38;4.90;99.90
14097;DHT22;7125;48.106;11.544;2022-11-03T02:11:07;4.90;99.90
14097;DHT22;7125;48.106;11.544;2022-11-03T02:13:49;4.90;99.90
14097;DHT22;7125;48.106;11.544;2022-11-03T02:16:18;4.80;99.90
14097;DHT22;7125;48.106;11.544;2022-11-03T02:18:46;4.80;99.90
14097;DHT22;7125;48.106;11.544;2022-11-03T02:21:21;4.80;99.90
14097;DHT22;7125;48.106;11.544;2022-11-03T02:23:55;4.80;99.90
14097;DHT22;7125;48.106;11.544;2022-11-03T02:26:26;4.80;99.90
14097;DHT22;7125;48.106;11.544;2022-11-03T02:28:53;4.80;99.90
14097;DHT22;7125;48.106;11.544;2022-11-03T02:31:26;4.80;99.90
14097;DHT22;7125;48.106;11.544;2022-11-03T02:34:00;4.70;99.90
14097;DHT22;7125;48.106;11.544;2022-11-03T02:36:33;4.70;99.90
14097;DHT22;7125;48.106;11.544;2022-11-03T02:39:05;4.70;99.90
14097;DHT22;7125;48.106;11.544;2022-11-03T02:41:37;4.70;99.90
14097;DHT22;7125;48.106;11.544;2022-11-03T02:44:06;4.70;99.90
14097;DHT22;7125;48.106;11.544;2022-11-03T02:46:34;4.70;99.90
14097;DHT22;7125;48.106;11.544;2022-11-03T02:49:02;4.70;99.90
14097;DHT22;7125;48.106;11.544;2022-11-03T02:51:29;4.70;99.90
14097;DHT22;7125;48.106;11.544;2022-11-03T02:54:04;4.70;99.90
14097;DHT22;7125;48.106;11.544;2022-11-03T02:56:34;4.60;99.90
14097;DHT22;7125;48.106;11.544;2022-11-03T02:59:07;4.60;99.90
14097;DHT22;7125;48.106;11.544;2022-11-03T03:01:37;4.60;99.90
14097;DHT22;7125;48.106;11.544;2022-11-03T03:04:15;4.60;99.90
14097;DHT22;7125;48.106;11.544;2022-11-03T03:06:47;4.60;99.90
14097;DHT22;7125;48.106;11.544;2022-11-03T03:09:19;4.60;99.90
14097;DHT22;7125;48.106;11.544;2022-11-03T03:11:48;4.60;99.90
14097;DHT22;7125;48.106;11.544;2022-11-03T03:14:22;4.60;99.90
14097;DHT22;7125;48.106;11.544;2022-11-03T03:16:54;4.60;99.90
14097;DHT22;7125;48.106;11.544;2022-11-03T03:19:32;4.60;99.90
14097;DHT22;7125;48.106;11.544;2022-11-03T03:22:22;4.50;99.90
14097;DHT22;7125;48.106;11.544;2022-11-03T03:24:52;4.50;99.90
14097;DHT22;7125;48.106;11.544;2022-11-03T03:27:24;4.50;99.90
14097;DHT22;7125;48.106;11.544;2022-11-03T03:29:56;4.50;99.90
14097;DHT22;7125;48.106;11.544;2022-11-03T03:32:25;4.40;99.90
14097;DHT22;7125;48.106;11.544;2022-11-03T03:34:55;4.40;99.90
14097;DHT22;7125;48.106;11.544;2022-11-03T03:37:25;4.40;99.90
14097;DHT22;7125;48.106;11.544;2022-11-03T03:39:56;4.30;99.90
14097;DHT22;7125;48.106;11.544;2022-11-03T03:42:28;4.30;99.90
14097;DHT22;7125;48.106;11.544;2022-11-03T03:44:58;4.30;99.90
14097;DHT22;7125;48.106;11.544;2022-11-03T03:47:28;4.30;99.90
14097;DHT22;7125;48.106;11.544;2022-11-03T03:49:55;4.20;99.90
14097;DHT22;7125;48.106;11.544;2022-11-03T03:52:23;4.20;99.90
14097;DHT22;7125;48.106;11.544;2022-11-03T03:54:50;4.20;99.90
14097;DHT22;7125;48.106;11.544;2022-11-03T03:57:19;4.20;99.90
14097;DHT22;7125;48.106;11.544;2022-11-03T03:59:46;4.20;99.90
14097;DHT22;7125;48.106;11.544;2022-11-03T04:02:15;4.20;99.90
14097;DHT22;7125;48.106;11.544;2022-11-03T04:04:42;4.20;99.90
14097;DHT22;7125;48.106;11.544;2022-11-03T04:07:08;4.20;99.90
14097;DHT22;7125;48.106;11.544;2022-11-03T04:09:53;4.10;99.90
14097;DHT22;7125;48.106;11.544;2022-11-03T04:12:20;4.20;99.90
14097;DHT22;7125;48.106;11.544;2022-11-03T04:15:05;4.10;99.90
14097;DHT22;7125;48.106;11.544;2022-11-03T04:17:50;4.10;99.90
14097;DHT22;7125;48.106;11.544;2022-11-03T04:20:35;4.10;99.90
14097;DHT22;7125;48.106;11.544;2022-11-03T04:23:19;4.10;99.90
14097;DHT22;7125;48.106;11.544;2022-11-03T04:25:47;4.00;99.90
14097;DHT22;7125;48.106;11.544;2022-11-03T04:28:16;4.00;99.90
14097;DHT22;7125;48.106;11.544;2022-11-03T04:30:43;4.00;99.90
14097;DHT22;7125;48.106;11.544;2022-11-03T04:33:14;4.00;99.90
14097;DHT22;7125;48.106;11.544;2022-11-03T04:35:42;4.00;99.90
14097;DHT22;7125;48.106;11.544;2022-11-03T04:38:20;4.00;99.90
14097;DHT22;7125;48.106;11.544;2022-11-03T04:40:49;4.00;99.90
14097;DHT22;7125;48.106;11.544;2022-11-03T04:43:19;4.00;99.90
14097;DHT22;7125;48.106;11.544;2022-11-03T04:45:47;4.00;99.90
14097;DHT22;7125;48.106;11.544;2022-11-03T04:48:19;3.90;99.90
14097;DHT22;7125;48.106;11.544;2022-11-03T04:50:50;3.90;99.90
14097;DHT22;7125;48.106;11.544;2022-11-03T04:53:20;4.00;99.90
14097;DHT22;7125;48.106;11.544;2022-11-03T04:55:50;4.00;99.90
14097;DHT22;7125;48.106;11.544;2022-11-03T04:58:19;4.00;99.90
14097;DHT22;7125;48.106;11.544;2022-11-03T05:00:47;4.00;99.90
14097;DHT22;7125;48.106;11.544;2022-11-03T05:03:20;4.00;99.90
14097;DHT22;7125;48.106;11.544;2022-11-03T05:05:48;4.10;99.90
14097;DHT22;7125;48.106;11.544;2022-11-03T05:08:15;4.10;99.90
14097;DHT22;7125;48.106;11.544;2022-11-03T05:10:44;4.10;99.90
14097;DHT22;7125;48.106;11.544;2022-11-03T05:13:16;4.10;99.90
14097;DHT22;7125;48.106;11.544;2022-11-03T05:15:45;4.20;99.90
14097;DHT22;7125;48.106;11.544;2022-11-03T05:18:19;4.20;99.90
14097;DHT22;7125;48.106;11.544;2022-11-03T05:20:50;4.30;99.90
14097;DHT22;7125;48.106;11.544;2022-11-03T05:23:19;4.40;99.90
14097;DHT22;7125;48.106;11.544;2022-11-03T05:25:49;4.40;99.90
14097;DHT22;7125;48.106;11.544;2022-11-03T05:28:21;4.50;99.90
14097;DHT22;7125;48.106;11.544;2022-11-03T05:30:50;4.60;99.90
14097;DHT22;7125;48.106;11.544;2022-11-03T05:33:25;4.60;99.90
14097;DHT22;7125;48.106;11.544;2022-11-03T05:35:53;4.60;99.90
14097;DHT22;7125;48.106;11.544;2022-11-03T05:38:21;4.60;99.90
14097;DHT22;7125;48.106;11.544;2022-11-03T05:40:50;4.60;99.90
14097;DHT22;7125;48.106;11.544;2022-11-03T05:43:19;4.60;99.90
14097;DHT22;7125;48.106;11.544;2022-11-03T05:45:49;4.60;99.90
14097;DHT22;7125;48.106;11.544;2022-11-03T05:48:28;4.60;99.90
14097;DHT22;7125;48.106;11.544;2022-11-03T05:50:56;4.60;99.90
14097;DHT22;7125;48.106;11.544;2022-11-03T05:53:28;4.60;99.90
14097;DHT22;7125;48.106;11.544;2022-11-03T05:55:58;4.70;99.90
14097;DHT22;7125;48.106;11.544;2022-11-03T05:58:29;4.70;99.90
14097;DHT22;7125;48.106;11.544;2022-11-03T06:00:58;4.70;99.90
14097;DHT22;7125;48.106;11.544;2022-11-03T06:03:33;4.60;99.90
14097;DHT22;7125;48.106;11.544;2022-11-03T06:06:05;4.60;99.90
14097;DHT22;7125;48.106;11.544;2022-11-03T06:08:37;4.70;99.90
14097;DHT22;7125;48.106;11.544;2022-11-03T06:11:05;4.70;99.90
14097;DHT22;7125;48.106;11.544;2022-11-03T06:13:34;4.70;99.90
14097;DHT22;7125;48.106;11.544;2022-11-03T06:16:03;4.70;99.90
14097;DHT22;7125;48.106;11.544;2022-11-03T06:18:33;4.70;99.90
14097;DHT22;7125;48.106;11.544;2022-11-03T06:21:06;4.70;99.90
14097;DHT22;7125;48.106;11.544;2022-11-03T06:23:35;4.70;99.90
14097;DHT22;7125;48.106;11.544;2022-11-03T06:26:03;4.70;99.90
14097;DHT22;7125;48.106;11.544;2022-11-03T06:28:35;4.70;99.90
14097;DHT22;7125;48.106;11.544;2022-11-03T06:31:04;4.80;99.90
14097;DHT22;7125;48.106;11.544;2022-11-03T06:33:34;4.80;99.90
14097;DHT22;7125;48.106;11.544;2022-11-03T06:36:10;4.80;99.90
14097;DHT22;7125;48.106;11.544;2022-11-03T06:38:39;4.90;99.90
14097;DHT22;7125;48.106;11.544;2022-11-03T06:41:13;4.90;99.90
14097;DHT22;7125;48.106;11.544;2022-11-03T06:43:43;5.00;99.90
14097;DHT22;7125;48.106;11.544;2022-11-03T06:46:14;5.00;99.90
14097;DHT22;7125;48.106;11.544;2022-11-03T06:48:45;5.10;99.90
14097;DHT22;7125;48.106;11.544;2022-11-03T06:51:19;5.10;99.90
14097;DHT22;7125;48.106;11.544;2022-11-03T06:53:47;5.10;99.90
14097;DHT22;7125;48.106;11.544;2022-11-03T06:56:17;5.10;99.90
14097;DHT22;7125;48.106;11.544;2022-11-03T06:58:46;5.10;99.90
14097;DHT22;7125;48.106;11.544;2022-11-03T07:01:17;5.10;99.90
14097;DHT22;7125;48.106;11.544;2022-11-03T07:03:48;5.10;99.90
14097;DHT22;7125;48.106;11.544;2022-11-03T07:06:18;5.20;99.90
14097;DHT22;7125;48.106;11.544;2022-11-03T07:08:50;5.20;99.90
14097;DHT22;7125;48.106;11.544;2022-11-03T07:11:20;5.20;99.90
14097;DHT22;7125;48.106;11.544;2022-11-03T07:13:50;5.30;99.90
14097;DHT22;7125;48.106;11.544;2022-11-03T07:16:24;5.40;99.90
14097;DHT22;7125;48.106;11.544;2022-11-03T07:18:55;5.40;99.90
14097;DHT22;7125;48.106;11.544;2022-11-03T07:21:32;5.40;99.90
14097;DHT22;7125;48.106;11.544;2022-11-03T07:24:02;5.40;99.90
14097;DHT22;7125;48.106;11.544;2022-11-03T07:26:31;5.40;99.90
14097;DHT22;7125;48.106;11.544;2022-11-03T07:28:59;5.40;99.90
14097;DHT22;7125;48.106;11.544;2022-11-03T07:31:28;5.30;99.90
14097;DHT22;7125;48.106;11.544;2022-11-03T07:33:58;5.30;99.90
14097;DHT22;7125;48.106;11.544;2022-11-03T07:36:27;5.40;99.90
14097;DHT22;7125;48.106;11.544;2022-11-03T07:38:59;5.40;99.90
14097;DHT22;7125;48.106;11.544;2022-11-03T07:41:30;5.40;99.90
14097;DHT22;7125;48.106;11.544;2022-11-03T07:43:59;5.40;99.90
14097;DHT22;7125;48.106;11.544;2022-11-03T07:46:27;5.40;99.90
14097;DHT22;7125;48.106;11.544;2022-11-03T07:48:57;5.40;99.90
14097;DHT22;7125;48.106;11.544;2022-11-03T07:51:27;5.50;99.90
14097;DHT22;7125;48.106;11.544;2022-11-03T07:53:57;5.50;99.90
14097;DHT22;7125;48.106;11.544;2022-11-03T07:56:31;5.50;99.90
14097;DHT22;7125;48.106;11.544;2022-11-03T07:59:00;5.60;99.90
14097;DHT22;7125;48.106;11.544;2022-11-03T08:01:35;5.70;99.90
14097;DHT22;7125;48.106;11.544;2022-11-03T08:04:05;5.70;99.90
14097;DHT22;7125;48.106;11.544;2022-11-03T08:06:33;5.80;99.90
14097;DHT22;7125;48.106;11.544;2022-11-03T08:09:00;5.80;99.90
14097;DHT22;7125;48.106;11.544;2022-11-03T08:11:27;5.90;99.90
14097;DHT22;7125;48.106;11.544;2022-11-03T08:13:54;6.00;99.90
14097;DHT22;7125;48.106;11.544;2022-11-03T08:16:21;6.00;99.90
14097;DHT22;7125;48.106;11.544;2022-11-03T08:18:48;6.10;99.90
14097;DHT22;7125;48.106;11.544;2022-11-03T08:21:16;6.20;99.90
14097;DHT22;7125;48.106;11.544;2022-11-03T08:23:44;6.30;99.90
14097;DHT22;7125;48.106;11.544;2022-11-03T08:26:11;6.30;99.90
14097;DHT22;7125;48.106;11.544;2022-11-03T08:28:39;6.50;99.90
14097;DHT22;7125;48.106;11.544;2022-11-03T08:31:06;6.60;99.90
14097;DHT22;7125;48.106;11.544;2022-11-03T08:33:34;6.60;99.90
14097;DHT22;7125;48.106;11.544;2022-11-03T08:36:02;6.70;99.90
14097;DHT22;7125;48.106;11.544;2022-11-03T08:38:32;6.70;99.90
14097;DHT22;7125;48.106;11.544;2022-11-03T08:40:59;6.80;99.90
14097;DHT22;7125;48.106;11.544;2022-11-03T08:43:26;6.90;99.90
14097;DHT22;7125;48.106;11.544;2022-11-03T08:45:55;6.90;99.90
14097;DHT22;7125;48.106;11.544;2022-11-03T08:48:24;7.00;99.90
14097;DHT22;7125;48.106;11.544;2022-11-03T08:50:53;7.10;99.90
14097;DHT22;7125;48.106;11.544;2022-11-03T08:53:21;7.20;99.90
14097;DHT22;7125;48.106;11.544;2022-11-03T08:55:49;7.30;99.90
14097;DHT22;7125;48.106;11.544;2022-11-03T08:58:17;7.40;99.90
14097;DHT22;7125;48.106;11.544;2022-11-03T09:00:45;7.50;99.90
14097;DHT22;7125;48.106;11.544;2022-11-03T09:03:12;7.50;99.90
14097;DHT22;7125;48.106;11.544;2022-11-03T09:05:39;7.70;99.90
14097;DHT22;7125;48.106;11.544;2022-11-03T09:08:06;7.70;99.90
14097;DHT22;7125;48.106;11.544;2022-11-03T09:10:34;7.80;99.90
14097;DHT22;7125;48.106;11.544;2022-11-03T09:13:02;7.90;99.90
14097;DHT22;7125;48.106;11.544;2022-11-03T09:15:30;8.00;99.90
14097;DHT22;7125;48.106;11.544;2022-11-03T09:17:58;8.10;99.90
14097;DHT22;7125;48.106;11.544;2022-11-03T09:20:24;8.30;99.90
14097;DHT22;7125;48.106;11.544;2022-11-03T09:22:53;8.40;99.90
14097;DHT22;7125;48.106;11.544;2022-11-03T09:25:20;8.50;99.90
14097;DHT22;7125;48.106;11.544;2022-11-03T09:27:47;8.60;99.90
14097;DHT22;7125;48.106;11.544;2022-11-03T09:30:16;8.70;99.90
14097;DHT22;7125;48.106;11.544;2022-11-03T09:32:43;8.80;99.90
14097;DHT22;7125;48.106;11.544;2022-11-03T09:35:14;8.90;99.90
14097;DHT22;7125;48.106;11.544;2022-11-03T09:37:41;9.00;99.90
14097;DHT22;7125;48.106;11.544;2022-11-03T09:40:09;9.10;99.90
14097;DHT22;7125;48.106;11.544;2022-11-03T09:42:38;9.20;99.90
14097;DHT22;7125;48.106;11.544;2022-11-03T09:45:07;9.30;99.90
14097;DHT22;7125;48.106;11.544;2022-11-03T09:47:38;9.50;99.90
14097;DHT22;7125;48.106;11.544;2022-11-03T09:50:11;9.60;99.90
14097;DHT22;7125;48.106;11.544;2022-11-03T09:52:39;9.80;99.90
14097;DHT22;7125;48.106;11.544;2022-11-03T09:55:12;9.90;99.90
14097;DHT22;7125;48.106;11.544;2022-11-03T09:57:41;9.90;99.90
14097;DHT22;7125;48.106;11.544;2022-11-03T10:00:17;10.00;99.90
14097;DHT22;7125;48.106;11.544;2022-11-03T10:02:47;10.10;99.90
14097;DHT22;7125;48.106;11.544;2022-11-03T10:05:19;10.20;99.90
14097;DHT22;7125;48.106;11.544;2022-11-03T10:07:48;10.30;99.90
14097;DHT22;7125;48.106;11.544;2022-11-03T10:10:18;10.40;99.90
14097;DHT22;7125;48.106;11.544;2022-11-03T10:12:47;10.40;99.90
14097;DHT22;7125;48.106;11.544;2022-11-03T10:15:15;10.60;99.90
14097;DHT22;7125;48.106;11.544;2022-11-03T10:17:44;10.70;99.90
14097;DHT22;7125;48.106;11.544;2022-11-03T10:20:14;10.80;99.90
14097;DHT22;7125;48.106;11.544;2022-11-03T10:22:43;10.90;99.90
14097;DHT22;7125;48.106;11.544;2022-11-03T10:25:34;11.00;99.90
14097;DHT22;7125;48.106;11.544;2022-11-03T10:28:19;11.20;99.90
14097;DHT22;7125;48.106;11.544;2022-11-03T10:30:51;11.30;99.90
14097;DHT22;7125;48.106;11.544;2022-11-03T10:33:28;11.40;99.90
14097;DHT22;7125;48.106;11.544;2022-11-03T10:35:58;11.40;99.90
14097;DHT22;7125;48.106;11.544;2022-11-03T10:38:27;11.50;99.90
14097;DHT22;7125;48.106;11.544;2022-11-03T10:40:56;11.60;99.90
14097;DHT22;7125;48.106;11.544;2022-11-03T10:43:35;11.70;99.90
14097;DHT22;7125;48.106;11.544;2022-11-03T10:46:15;11.80;99.90
14097;DHT22;7125;48.106;11.544;2022-11-03T10:48:43;11.80;99.90
14097;DHT22;7125;48.106;11.544;2022-11-03T10:51:14;11.80;99.90
14097;DHT22;7125;48.106;11.544;2022-11-03T10:53:42;11.80;99.90
14097;DHT22;7125;48.106;11.544;2022-11-03T10:56:09;11.80;99.90
14097;DHT22;7125;48.106;11.544;2022-11-03T10:58:37;11.90;99.90
14097;DHT22;7125;48.106;11.544;2022-11-03T11:01:05;12.00;99.90
14097;DHT22;7125;48.106;11.544;2022-11-03T11:03:40;12.00;99.90
14097;DHT22;7125;48.106;11.544;2022-11-03T11:06:18;12.10;99.90
14097;DHT22;7125;48.106;11.544;2022-11-03T11:08:46;12.20;99.90
14097;DHT22;7125;48.106;11.544;2022-11-03T11:11:14;12.20;99.90
14097;DHT22;7125;48.106;11.544;2022-11-03T11:13:42;12.30;99.90
14097;DHT22;7125;48.106;11.544;2022-11-03T11:19:10;12.40;99.90
14097;DHT22;7125;48.106;11.544;2022-11-03T11:22:12;12.50;99.90
14097;DHT22;7125;48.106;11.544;2022-11-03T11:24:58;12.60;99.90
14097;DHT22;7125;48.106;11.544;2022-11-03T11:27:45;12.70;99.90
14097;DHT22;7125;48.106;11.544;2022-11-03T11:33:28;12.80;99.90
14097;DHT22;7125;48.106;11.544;2022-11-03T11:36:21;12.80;99.90
14097;DHT22;7125;48.106;11.544;2022-11-03T11:39:00;12.80;99.90
14097;DHT22;7125;48.106;11.544;2022-11-03T11:42:04;12.90;99.90
14097;DHT22;7125;48.106;11.544;2022-11-03T11:44:51;12.90;99.90
14097;DHT22;7125;48.106;11.544;2022-11-03T11:47:28;13.00;99.90
14097;DHT22;7125;48.106;11.544;2022-11-03T11:50:21;13.10;99.90
14097;DHT22;7125;48.106;11.544;2022-11-03T11:52:52;13.30;99.90
14097;DHT22;7125;48.106;11.544;2022-11-03T11:55:30;13.40;99.90
14097;DHT22;7125;48.106;11.544;2022-11-03T11:57:59;13.40;99.90
14097;DHT22;7125;48.106;11.544;2022-11-03T12:00:29;13.40;99.90
14097;DHT22;7125;48.106;11.544;2022-11-03T12:02:56;13.40;99.90
14097;DHT22;7125;48.106;11.544;2022-11-03T12:05:29;13.50;99.90
14097;DHT22;7125;48.106;11.544;2022-11-03T12:07:56;13.60;99.90
14097;DHT22;7125;48.106;11.544;2022-11-03T12:10:27;13.60;99.90
14097;DHT22;7125;48.106;11.544;2022-11-03T12:12:56;13.80;99.90
14097;DHT22;7125;48.106;11.544;2022-11-03T12:15:48;13.90;99.90
14097;DHT22;7125;48.106;11.544;2022-11-03T12:18:33;14.10;99.90
14097;DHT22;7125;48.106;11.544;2022-11-03T12:21:02;14.20;99.90
14097;DHT22;7125;48.106;11.544;2022-11-03T12:23:37;14.30;99.90
14097;DHT22;7125;48.106;11.544;2022-11-03T12:26:14;14.40;99.90
14097;DHT22;7125;48.106;11.544;2022-11-03T12:28:41;14.40;99.90
14097;DHT22;7125;48.106;11.544;2022-11-03T12:31:09;14.50;99.90
14097;DHT22;7125;48.106;11.544;2022-11-03T12:33:36;14.50;99.90
14097;DHT22;7125;48.106;11.544;2022-11-03T12:36:03;14.50;99.90
14097;DHT22;7125;48.106;11.544;2022-11-03T12:38:30;14.50;99.90
14097;DHT22;7125;48.106;11.544;2022-11-03T12:40:58;14.40;99.90
14097;DHT22;7125;48.106;11.544;2022-11-03T12:43:48;14.50;99.90
14097;DHT22;7125;48.106;11.544;2022-11-03T12:46:16;14.40;99.90
14097;DHT22;7125;48.106;11.544;2022-11-03T12:48:44;14.30;99.90
14097;DHT22;7125;48.106;11.544;2022-11-03T12:51:13;14.30;99.90
14097;DHT22;7125;48.106;11.544;2022-11-03T12:53:41;14.30;99.90
14097;DHT22;7125;48.106;11.544;2022-11-03T12:56:08;14.30;99.90
14097;DHT22;7125;48.106;11.544;2022-11-03T12:58:36;14.30;99.90
14097;DHT22;7125;48.106;11.544;2022-11-03T13:01:05;14.30;99.90
14097;DHT22;7125;48.106;11.544;2022-11-03T13:03:34;14.40;99.90
14097;DHT22;7125;48.106;11.544;2022-11-03T13:06:03;14.40;99.90
14097;DHT22;7125;48.106;11.544;2022-11-03T13:08:34;14.40;99.90
14097;DHT22;7125;48.106;11.544;2022-11-03T13:11:01;14.40;99.90
14097;DHT22;7125;48.106;11.544;2022-11-03T13:13:28;14.40;99.90
14097;DHT22;7125;48.106;11.544;2022-11-03T13:15:56;14.40;99.90
14097;DHT22;7125;48.106;11.544;2022-11-03T13:18:24;14.40;99.90
14097;DHT22;7125;48.106;11.544;2022-11-03T13:20:51;14.40;99.90
14097;DHT22;7125;48.106;11.544;2022-11-03T13:23:18;14.40;99.90
14097;DHT22;7125;48.106;11.544;2022-11-03T13:25:44;14.40;99.90
14097;DHT22;7125;48.106;11.544;2022-11-03T13:28:11;14.40;99.90
14097;DHT22;7125;48.106;11.544;2022-11-03T13:30:38;14.40;99.90
14097;DHT22;7125;48.106;11.544;2022-11-03T13:33:05;14.40;99.90
14097;DHT22;7125;48.106;11.544;2022-11-03T13:35:34;14.40;99.90
14097;DHT22;7125;48.106;11.544;2022-11-03T13:38:01;14.40;99.90
14097;DHT22;7125;48.106;11.544;2022-11-03T13:40:29;14.30;99.90
14097;DHT22;7125;48.106;11.544;2022-11-03T13:42:57;14.30;99.90
14097;DHT22;7125;48.106;11.544;2022-11-03T13:45:24;14.20;99.90
14097;DHT22;7125;48.106;11.544;2022-11-03T13:47:51;14.10;99.90
14097;DHT22;7125;48.106;11.544;2022-11-03T13:50:17;14.00;99.90
14097;DHT22;7125;48.106;11.544;2022-11-03T13:52:46;14.00;99.90
14097;DHT22;7125;48.106;11.544;2022-11-03T13:55:13;14.00;99.90
14097;DHT22;7125;48.106;11.544;2022-11-03T13:57:40;13.90;99.90
14097;DHT22;7125;48.106;11.544;2022-11-03T14:00:10;13.90;99.90
14097;DHT22;7125;48.106;11.544;2022-11-03T14:02:38;13.80;99.90
14097;DHT22;7125;48.106;11.544;2022-11-03T14:05:06;13.80;99.90
14097;DHT22;7125;48.106;11.544;2022-11-03T14:07:33;13.70;99.90
14097;DHT22;7125;48.106;11.544;2022-11-03T14:10:01;13.70;99.90
14097;DHT22;7125;48.106;11.544;2022-11-03T14:12:28;13.60;99.90
14097;DHT22;7125;48.106;11.544;2022-11-03T14:15:00;13.60;99.90
14097;DHT22;7125;48.106;11.544;2022-11-03T14:17:28;13.50;99.90
14097;DHT22;7125;48.106;11.544;2022-11-03T14:19:55;13.50;99.90
14097;DHT22;7125;48.106;11.544;2022-11-03T14:22:23;13.30;99.90
14097;DHT22;7125;48.106;11.544;2022-11-03T14:24:51;13.20;99.90
14097;DHT22;7125;48.106;11.544;2022-11-03T14:27:19;13.20;99.90
14097;DHT22;7125;48.106;11.544;2022-11-03T14:29:46;13.10;99.90
14097;DHT22;7125;48.106;11.544;2022-11-03T14:32:14;13.00;99.90
14097;DHT22;7125;48.106;11.544;2022-11-03T14:34:42;13.00;99.90
14097;DHT22;7125;48.106;11.544;2022-11-03T14:37:09;12.90;99.90
14097;DHT22;7125;48.106;11.544;2022-11-03T14:39:36;12.80;99.90
14097;DHT22;7125;48.106;11.544;2022-11-03T14:42:04;12.80;99.90
14097;DHT22;7125;48.106;11.544;2022-11-03T14:44:32;12.70;99.90
14097;DHT22;7125;48.106;11.544;2022-11-03T14:46:59;12.60;99.90
14097;DHT22;7125;48.106;11.544;2022-11-03T14:49:28;12.50;99.90
14097;DHT22;7125;48.106;11.544;2022-11-03T14:51:55;12.40;99.90
14097;DHT22;7125;48.106;11.544;2022-11-03T14:54:24;12.40;99.90
14097;DHT22;7125;48.106;11.544;2022-11-03T14:56:51;12.30;99.90
14097;DHT22;7125;48.106;11.544;2022-11-03T14:59:19;12.20;99.90
14097;DHT22;7125;48.106;11.544;2022-11-03T15:01:48;12.20;99.90
14097;DHT22;7125;48.106;11.544;2022-11-03T15:04:16;12.10;99.90
14097;DHT22;7125;48.106;11.544;2022-11-03T15:06:43;12.10;99.90
14097;DHT22;7125;48.106;11.544;2022-11-03T15:09:10;12.00;99.90
14097;DHT22;7125;48.106;11.544;2022-11-03T15:11:39;11.90;99.90
14097;DHT22;7125;48.106;11.544;2022-11-03T15:14:06;11.80;99.90
14097;DHT22;7125;48.106;11.544;2022-11-03T15:16:33;11.70;99.90
14097;DHT22;7125;48.106;11.544;2022-11-03T15:19:02;11.60;99.90
14097;DHT22;7125;48.106;11.544;2022-11-03T15:21:29;11.60;99.90
14097;DHT22;7125;48.106;11.544;2022-11-03T15:23:57;11.50;99.90
14097;DHT22;7125;48.106;11.544;2022-11-03T15:26:24;11.40;99.90
14097;DHT22;7125;48.106;11.544;2022-11-03T15:28:51;11.30;99.90
14097;DHT22;7125;48.106;11.544;2022-11-03T15:31:19;11.20;99.90
14097;DHT22;7125;48.106;11.544;2022-11-03T15:33:48;11.20;99.90
14097;DHT22;7125;48.106;11.544;2022-11-03T15:36:16;11.10;99.90
14097;DHT22;7125;48.106;11.544;2022-11-03T15:38:43;11.00;99.90
14097;DHT22;7125;48.106;11.544;2022-11-03T15:41:10;11.00;99.90
14097;DHT22;7125;48.106;11.544;2022-11-03T15:43:45;10.90;99.90
14097;DHT22;7125;48.106;11.544;2022-11-03T15:46:12;10.80;99.90
14097;DHT22;7125;48.106;11.544;2022-11-03T15:48:41;10.80;99.90
14097;DHT22;7125;48.106;11.544;2022-11-03T15:51:09;10.70;99.90
14097;DHT22;7125;48.106;11.544;2022-11-03T15:53:38;10.70;99.90
14097;DHT22;7125;48.106;11.544;2022-11-03T15:56:05;10.70;99.90
14097;DHT22;7125;48.106;11.544;2022-11-03T15:58:33;10.60;99.90
14097;DHT22;7125;48.106;11.544;2022-11-03T16:01:00;10.50;99.90
14097;DHT22;7125;48.106;11.544;2022-11-03T16:03:29;10.40;99.90
14097;DHT22;7125;48.106;11.544;2022-11-03T16:05:57;10.40;99.90